Time;durP1;ratioP1;P1;durP2;ratioP2;P2;SDS_P1;SDS_P2;PMS_P1;PMS_P2;Temp;Humidity;BMP_temperature;BMP_pressure;BME280_temperature;BME280_humidity;BME280_pressure;Samples;Min_cycle;Max_cycle;Signal;HPM_P1;HPM_P2
2022/06/10 00:01:11;;;;;;;1.23;1.10;;;21.60;87.00;;;;;;5142963;27;20247;-95
2022/06/10 00:03:38;;;;;;;1.60;1.03;;;21.50;86.90;;;;;;5139344;27;20172;-94
2022/06/10 00:06:06;;;;;;;1.10;1.00;;;21.50;86.90;;;;;;5139484;27;20187;-94
2022/06/10 00:08:53;;;;;;;1.63;1.10;;;21.50;86.90;;;;;;5140006;27;20158;-94
2022/06/10 00:11:18;;;;;;;1.00;0.93;;;21.50;86.90;;;;;;5135961;27;20173;-95
2022/06/10 00:13:46;;;;;;;2.63;1.07;;;21.50;86.90;;;;;;5139181;27;20183;-94
2022/06/10 00:16:14;;;;;;;1.20;1.10;;;21.50;86.80;;;;;;5139633;27;20192;-94
2022/06/10 00:18:42;;;;;;;1.80;1.17;;;21.40;86.80;;;;;;5140129;27;20207;-94
2022/06/10 00:21:11;;;;;;;1.27;1.10;;;21.50;86.90;;;;;;5138724;27;20176;-94
2022/06/10 00:23:37;;;;;;;1.00;0.90;;;21.50;86.80;;;;;;5138745;27;20183;-94
2022/06/10 00:26:04;;;;;;;1.10;1.00;;;21.40;86.70;;;;;;5139832;27;20242;-95
2022/06/10 00:28:49;;;;;;;1.73;1.10;;;21.40;86.80;;;;;;5140125;27;20239;-94
2022/06/10 00:31:16;;;;;;;1.17;0.97;;;21.40;86.70;;;;;;5141009;27;20239;-94
2022/06/10 00:33:42;;;;;;;1.43;1.13;;;21.40;86.70;;;;;;5140531;28;20192;-95
2022/06/10 00:36:09;;;;;;;1.67;1.10;;;21.40;86.70;;;;;;5140535;27;20287;-95
2022/06/10 00:38:49;;;;;;;1.10;1.00;;;21.40;86.70;;;;;;5140801;27;20171;-95
2022/06/10 00:41:15;;;;;;;1.63;1.10;;;21.40;86.70;;;;;;5140783;27;20193;-94
2022/06/10 00:43:41;;;;;;;1.47;1.10;;;21.40;87.30;;;;;;5141005;28;20158;-94
2022/06/10 00:46:26;;;;;;;1.10;1.00;;;21.40;86.70;;;;;;5141152;28;20176;-94
2022/06/10 00:49:07;;;;;;;2.17;1.20;;;21.40;86.80;;;;;;5140057;28;20158;-95
2022/06/10 00:51:37;;;;;;;1.10;1.00;;;21.30;86.60;;;;;;5141227;28;20205;-94
2022/06/10 00:54:42;;;;;;;1.03;1.00;;;21.30;86.60;;;;;;5141318;28;20162;-94
2022/06/10 00:57:38;;;;;;;1.50;1.07;;;21.30;86.60;;;;;;5141592;28;20261;-95
2022/06/10 01:00:09;;;;;;;1.20;1.10;;;21.30;86.60;;;;;;5140383;28;20188;-94
2022/06/10 01:02:36;;;;;;;1.33;1.20;;;21.30;86.60;;;;;;5140479;28;20185;-95
2022/06/10 01:05:09;;;;;;;1.40;1.30;;;21.30;86.60;;;;;;5141499;28;20181;-94
2022/06/10 01:07:38;;;;;;;1.37;1.10;;;21.30;86.50;;;;;;5141421;27;20170;-95
2022/06/10 01:10:09;;;;;;;1.23;1.10;;;21.30;86.50;;;;;;5142361;28;20252;-95
2022/06/10 01:12:54;;;;;;;1.07;1.07;;;21.20;86.40;;;;;;5142533;27;20170;-96
2022/06/10 01:15:30;;;;;;;1.03;0.93;;;21.20;86.40;;;;;;5142211;28;20163;-94
2022/06/10 01:18:19;;;;;;;1.27;1.17;;;21.20;86.40;;;;;;5141982;28;20212;-95
2022/06/10 01:21:14;;;;;;;1.00;1.00;;;21.20;86.40;;;;;;5141716;28;20222;-94
2022/06/10 01:24:00;;;;;;;1.97;1.00;;;21.20;86.40;;;;;;5099011;27;20200;-95
2022/06/10 01:33:44;;;;;;;1.07;0.97;;;21.10;86.10;;;;;;5163949;27;20245;-95
2022/06/10 01:36:31;;;;;;;1.87;1.00;;;21.10;86.20;;;;;;5145949;27;20209;-95
2022/06/10 01:39:12;;;;;;;1.20;1.10;;;21.10;86.20;;;;;;5146170;27;20184;-94
2022/06/10 01:41:43;;;;;;;1.20;1.10;;;21.10;86.10;;;;;;5145899;27;20167;-96
2022/06/10 01:44:31;;;;;;;1.27;1.00;;;21.10;86.10;;;;;;5145803;27;20175;-95
2022/06/10 02:10:40;;;;;;;1.10;1.00;;;21.00;85.80;;;;;;5163295;27;20156;-93
2022/06/10 02:13:11;;;;;;;1.23;1.10;;;20.90;85.70;;;;;;5145496;27;20180;-95
2022/06/10 02:15:41;;;;;;;0.80;0.80;;;21.00;85.70;;;;;;5145442;27;20157;-95
2022/06/10 02:18:44;;;;;;;1.30;1.00;;;20.90;85.70;;;;;;5145335;27;20162;-94
2022/06/10 02:45:38;;;;;;;1.00;0.90;;;20.80;85.40;;;;;;5162405;27;20205;-93
2022/06/10 02:48:04;;;;;;;0.77;0.77;;;20.80;85.30;;;;;;5144502;27;20195;-95
2022/06/10 02:50:30;;;;;;;1.87;1.00;;;20.80;85.30;;;;;;5144889;27;20169;-95
2022/06/10 02:52:57;;;;;;;0.90;0.90;;;20.80;85.30;;;;;;5144004;27;20176;-95
2022/06/10 03:05:36;;;;;;;1.17;0.97;;;20.70;85.10;;;;;;5161701;27;20188;-94
2022/06/10 03:08:26;;;;;;;0.90;0.90;;;20.70;85.00;;;;;;5143969;27;20160;-95
2022/06/10 03:11:11;;;;;;;1.10;1.00;;;20.70;85.00;;;;;;5105472;27;20183;-94
2022/06/10 03:20:25;;;;;;;1.00;0.90;;;20.70;84.90;;;;;;5161562;27;20176;-94
2022/06/10 03:23:08;;;;;;;0.97;0.90;;;20.60;84.80;;;;;;5143947;27;20190;-94
2022/06/10 03:25:59;;;;;;;1.07;1.00;;;20.60;85.30;;;;;;5143279;27;20177;-94
2022/06/10 03:29:00;;;;;;;1.10;1.00;;;20.60;84.70;;;;;;5143527;27;20168;-94
2022/06/10 03:31:51;;;;;;;1.00;1.00;;;20.60;84.70;;;;;;5143478;27;20164;-95
2022/06/10 03:34:54;;;;;;;1.50;1.07;;;20.60;84.60;;;;;;5143498;27;20166;-94
2022/06/10 03:37:22;;;;;;;1.07;1.00;;;20.60;84.60;;;;;;5143423;27;20223;-94
2022/06/10 03:39:55;;;;;;;0.90;0.90;;;20.60;84.50;;;;;;5143311;27;20162;-94
2022/06/10 03:42:22;;;;;;;1.10;1.00;;;20.60;84.50;;;;;;5143114;27;20183;-94
2022/06/10 03:44:53;;;;;;;1.20;1.10;;;20.60;84.40;;;;;;5140984;27;20228;-95
2022/06/10 03:47:28;;;;;;;1.20;1.00;;;20.60;84.40;;;;;;5143087;27;20185;-96
2022/06/10 03:53:26;;;;;;;1.20;1.03;;;20.60;84.30;;;;;;5160586;27;20169;-94
2022/06/10 03:55:52;;;;;;;1.20;0.83;;;20.60;84.20;;;;;;5142310;27;20162;-94
2022/06/10 03:58:18;;;;;;;1.00;0.90;;;20.60;84.20;;;;;;5143350;27;20154;-95
2022/06/10 04:00:44;;;;;;;0.90;0.80;;;20.60;84.20;;;;;;5143437;27;20160;-94
2022/06/10 04:09:56;;;;;;;0.90;0.90;;;20.60;84.00;;;;;;5160945;27;20178;-93
2022/06/10 04:12:22;;;;;;;1.00;0.90;;;20.60;83.90;;;;;;5143313;27;20155;-94
2022/06/10 04:14:48;;;;;;;1.10;1.00;;;20.60;83.90;;;;;;5143189;27;20181;-94
2022/06/10 04:17:13;;;;;;;1.20;0.80;;;20.60;83.80;;;;;;5143024;27;20196;-94
2022/06/10 04:19:40;;;;;;;1.07;0.97;;;20.60;83.70;;;;;;5143174;27;20165;-95
2022/06/10 04:22:06;;;;;;;1.17;1.07;;;20.60;83.60;;;;;;5143034;27;20203;-94
2022/06/10 04:24:32;;;;;;;0.97;0.93;;;20.60;83.60;;;;;;5143082;27;20222;-94
2022/06/10 04:26:58;;;;;;;1.00;0.90;;;20.60;83.40;;;;;;5142881;27;20185;-94
2022/06/10 04:29:24;;;;;;;0.90;0.90;;;20.60;83.30;;;;;;5142972;27;20174;-96
2022/06/10 04:31:50;;;;;;;1.00;0.90;;;20.60;83.20;;;;;;5142762;27;20232;-95
2022/06/10 04:34:16;;;;;;;1.10;1.00;;;20.60;83.10;;;;;;5142809;27;20180;-95
2022/06/10 04:36:43;;;;;;;1.20;1.00;;;20.60;83.00;;;;;;5142679;27;20312;-96
2022/06/10 04:43:15;;;;;;;1.00;0.90;;;20.60;82.90;;;;;;5160223;27;20233;-96
2022/06/10 04:45:54;;;;;;;1.10;0.93;;;20.70;82.80;;;;;;5142646;27;20157;-95
2022/06/10 04:48:19;;;;;;;0.93;0.90;;;20.70;82.60;;;;;;5142629;27;20206;-95
2022/06/10 04:54:10;;;;;;;0.90;0.90;;;20.70;82.30;;;;;;5160055;27;20139;-96
2022/06/10 04:56:38;;;;;;;0.80;0.80;;;20.70;82.10;;;;;;5141993;27;20202;-95
2022/06/10 04:59:03;;;;;;;0.90;0.90;;;20.80;82.00;;;;;;5145597;27;20168;-95
2022/06/10 05:01:29;;;;;;;1.07;0.97;;;20.80;82.00;;;;;;5146688;27;20169;-96
2022/06/10 05:03:55;;;;;;;0.73;0.73;;;20.80;81.80;;;;;;5146802;27;20165;-95
2022/06/10 05:06:21;;;;;;;0.80;0.80;;;20.80;81.70;;;;;;5146751;27;20160;-95
2022/06/10 05:08:47;;;;;;;1.03;0.90;;;20.80;81.50;;;;;;5146718;27;20160;-93
2022/06/10 05:11:14;;;;;;;1.00;1.00;;;20.90;81.50;;;;;;5146645;27;20170;-96
2022/06/10 05:13:39;;;;;;;0.80;0.80;;;20.90;81.40;;;;;;5146580;27;20186;-96
2022/06/10 05:16:06;;;;;;;0.80;0.80;;;20.90;81.20;;;;;;5146390;27;20201;-96
2022/06/10 05:18:32;;;;;;;0.80;0.80;;;20.90;81.10;;;;;;5146468;27;20161;-95
2022/06/10 05:20:58;;;;;;;1.13;0.90;;;21.00;81.00;;;;;;5145950;27;20177;-94
2022/06/10 05:23:25;;;;;;;0.90;0.90;;;21.00;80.70;;;;;;5146355;27;20161;-95
2022/06/10 05:25:51;;;;;;;1.47;1.00;;;21.10;80.60;;;;;;5146208;27;20193;-94
2022/06/10 05:28:18;;;;;;;1.00;0.90;;;21.10;80.30;;;;;;5146104;27;20183;-94
2022/06/10 05:30:44;;;;;;;0.90;0.90;;;21.10;80.10;;;;;;5146243;27;20176;-95
2022/06/10 05:33:11;;;;;;;1.00;0.90;;;21.20;80.00;;;;;;5145975;27;20158;-96
2022/06/10 05:35:38;;;;;;;1.10;1.00;;;21.20;79.80;;;;;;5145990;27;20225;-95
2022/06/10 05:38:05;;;;;;;0.80;0.80;;;21.30;79.60;;;;;;5145861;27;20264;-95
2022/06/10 05:40:32;;;;;;;1.43;0.90;;;21.30;79.30;;;;;;5145731;27;20162;-94
2022/06/10 05:42:58;;;;;;;1.73;1.00;;;21.40;79.80;;;;;;5145929;27;20158;-95
2022/06/10 05:45:25;;;;;;;2.67;1.10;;;21.40;78.80;;;;;;5145532;27;20188;-94
2022/06/10 05:47:55;;;;;;;1.23;0.93;;;21.40;78.40;;;;;;5144865;27;20165;-96
2022/06/10 05:50:35;;;;;;;1.30;0.90;;;21.50;78.00;;;;;;5145642;27;20173;-94
2022/06/10 05:53:10;;;;;;;1.20;1.10;;;21.60;77.20;;;;;;5145185;27;20157;-94
2022/06/10 05:55:36;;;;;;;2.57;1.00;;;21.70;76.60;;;;;;5145365;27;20176;-95
2022/06/10 05:58:02;;;;;;;1.57;1.00;;;21.80;75.50;;;;;;5145465;27;20200;-94
2022/06/10 06:00:30;;;;;;;2.63;1.30;;;22.00;74.30;;;;;;5145679;27;20229;-96
2022/06/10 06:05:40;;;;;;;1.33;1.10;;;22.40;70.40;;;;;;5162908;27;20200;-95
2022/06/10 06:08:06;;;;;;;2.23;1.10;;;22.60;68.90;;;;;;5145250;27;20153;-96
2022/06/10 06:10:32;;;;;;;2.00;1.00;;;22.60;68.60;;;;;;5145209;27;20167;-94
2022/06/10 06:15:42;;;;;;;1.00;1.00;;;22.70;67.30;;;;;;5162134;27;20175;-94
2022/06/10 06:18:10;;;;;;;2.90;1.10;;;22.70;67.10;;;;;;5144358;27;20180;-94
2022/06/10 06:20:36;;;;;;;2.57;1.40;;;22.70;67.60;;;;;;5144672;27;20200;-94
2022/06/10 06:25:46;;;;;;;1.80;1.00;;;22.60;68.90;;;;;;5161854;27;20223;-94
2022/06/10 06:28:12;;;;;;;1.20;1.10;;;22.50;69.30;;;;;;5144680;27;20174;-95
2022/06/10 06:30:38;;;;;;;1.90;1.17;;;22.50;69.70;;;;;;5144173;27;20168;-95
2022/06/10 06:33:15;;;;;;;2.17;1.20;;;22.50;70.00;;;;;;5143566;27;20169;-94
2022/06/10 06:35:54;;;;;;;1.63;1.20;;;22.50;70.30;;;;;;5143755;27;20183;-95
2022/06/10 06:38:21;;;;;;;2.47;1.30;;;22.50;70.80;;;;;;5143892;27;20171;-95
2022/06/10 06:43:32;;;;;;;2.90;1.30;;;22.40;71.10;;;;;;5161531;27;20168;-94
2022/06/10 06:45:58;;;;;;;2.43;1.30;;;22.40;71.40;;;;;;5144624;27;20157;-93
2022/06/10 06:48:24;;;;;;;2.37;1.10;;;22.40;71.60;;;;;;5143875;27;20174;-94
2022/06/10 06:53:36;;;;;;;2.33;1.20;;;22.40;71.80;;;;;;5161671;27;20235;-95
2022/06/10 06:56:03;;;;;;;2.80;1.27;;;22.40;71.90;;;;;;5144107;27;20162;-95
2022/06/10 06:58:29;;;;;;;4.53;1.70;;;22.40;72.10;;;;;;5143947;27;20192;-94
2022/06/10 07:00:55;;;;;;;3.17;1.30;;;22.40;72.20;;;;;;5143806;27;20188;-94
2022/06/10 07:03:20;;;;;;;3.30;1.57;;;22.40;72.30;;;;;;5144117;27;20159;-94
2022/06/10 07:05:47;;;;;;;2.40;1.40;;;22.40;72.20;;;;;;5143632;27;20205;-95
2022/06/10 07:08:50;;;;;;;3.47;1.50;;;22.40;72.50;;;;;;5143113;27;20162;-95
2022/06/10 07:11:16;;;;;;;2.80;1.70;;;22.40;72.60;;;;;;5143289;27;20157;-94
2022/06/10 07:13:42;;;;;;;3.77;1.50;;;22.40;72.60;;;;;;5143846;27;20245;-93
2022/06/10 07:16:08;;;;;;;3.20;1.77;;;22.40;72.90;;;;;;5143327;27;20208;-94
2022/06/10 07:19:12;;;;;;;3.17;1.60;;;22.40;72.90;;;;;;5142685;27;20171;-94
2022/06/10 07:21:50;;;;;;;3.80;1.70;;;22.40;73.10;;;;;;5142293;27;20153;-94
2022/06/10 07:24:15;;;;;;;4.23;1.93;;;22.40;73.20;;;;;;5143032;27;20158;-94
2022/06/10 07:26:41;;;;;;;4.50;1.80;;;22.40;73.20;;;;;;5142596;27;20165;-94
2022/06/10 07:29:10;;;;;;;1.97;1.30;;;22.40;73.30;;;;;;5143060;27;20185;-94
2022/06/10 07:32:12;;;;;;;6.00;1.67;;;22.40;73.30;;;;;;5142070;27;20180;-94
2022/06/10 07:34:37;;;;;;;2.63;1.60;;;22.40;73.40;;;;;;5143751;27;20185;-96
2022/06/10 07:37:04;;;;;;;2.53;1.77;;;22.40;73.30;;;;;;5143752;27;20273;-95
2022/06/10 07:39:32;;;;;;;3.10;1.83;;;22.40;73.50;;;;;;5143974;27;20181;-93
2022/06/10 08:09:28;;;;;;;4.57;1.90;;;22.40;73.80;;;;;;5160939;27;20197;-96
2022/06/10 08:11:53;;;;;;;3.07;2.00;;;22.40;73.90;;;;;;5143141;27;20194;-95
2022/06/10 08:14:20;;;;;;;4.03;1.90;;;22.40;73.90;;;;;;5143194;27;20152;-95
2022/06/10 08:16:46;;;;;;;3.30;2.17;;;22.50;74.00;;;;;;5143252;27;20208;-96
2022/06/10 08:19:35;;;;;;;3.73;1.93;;;22.50;74.00;;;;;;5143278;27;20154;-96
2022/06/10 08:24:45;;;;;;;3.13;2.00;;;22.50;73.80;;;;;;5160628;27;20149;-95
2022/06/10 08:27:11;;;;;;;4.77;2.30;;;22.50;73.60;;;;;;5142966;27;20172;-96
2022/06/10 08:29:37;;;;;;;4.57;2.17;;;22.60;73.50;;;;;;5143018;27;20165;-94
2022/06/10 08:32:03;;;;;;;4.60;2.17;;;22.70;72.80;;;;;;5142777;27;20164;-96
2022/06/10 08:34:28;;;;;;;5.10;2.20;;;22.80;71.70;;;;;;5142747;27;20150;-95
2022/06/10 08:36:54;;;;;;;5.77;2.30;;;22.90;71.30;;;;;;5142769;27;20215;-96
2022/06/10 08:39:20;;;;;;;4.87;2.13;;;23.00;70.40;;;;;;5142866;27;20181;-96
2022/06/10 08:48:55;;;;;;;3.33;2.10;;;23.50;66.90;;;;;;5160019;27;20200;-96
2022/06/10 08:51:24;;;;;;;4.07;2.17;;;23.60;65.60;;;;;;5142388;27;20192;-96
2022/06/10 08:54:14;;;;;;;4.35;2.20;;;23.80;64.50;;;;;;5142279;27;20162;-95
2022/06/10 09:03:34;;;;;;;3.63;2.35;;;24.20;61.60;;;;;;5158675;27;20183;-95
2022/06/10 09:06:05;;;;;;;3.13;1.83;;;24.40;60.70;;;;;;5140099;28;20208;-95
2022/06/10 09:08:47;;;;;;;3.00;2.20;;;24.50;60.10;;;;;;5140088;28;20242;-96
2022/06/10 09:11:50;;;;;;;4.38;2.22;;;24.50;59.80;;;;;;5137767;28;20206;-95
2022/06/10 09:14:23;;;;;;;8.15;2.30;;;24.50;59.80;;;;;;5138632;28;20165;-96
2022/06/10 09:17:18;;;;;;;4.80;1.90;;;24.50;59.80;;;;;;5140183;27;20198;-95
2022/06/10 09:19:54;;;;;;;3.38;1.90;;;24.40;60.20;;;;;;5140226;28;20166;-95
2022/06/10 09:23:17;;;;;;;4.33;2.40;;;24.30;60.60;;;;;;5140233;28;20165;-95
2022/06/10 09:25:46;;;;;;;3.43;2.10;;;24.30;61.30;;;;;;5059545;28;20243;-95
2022/06/10 09:28:12;;;;;;;2.67;1.80;;;24.20;61.70;;;;;;5125953;28;20182;-94
2022/06/10 09:34:26;;;;;;;4.87;2.40;;;24.20;62.10;;;;;;5159627;27;20225;-95
2022/06/10 09:36:52;;;;;;;3.67;2.20;;;24.30;62.10;;;;;;5140491;27;20238;-95
2022/06/10 09:42:51;;;;;;;3.17;1.80;;;24.40;61.60;;;;;;5159678;27;20199;-96
2022/06/10 09:45:36;;;;;;;3.83;2.13;;;24.50;61.50;;;;;;5144900;27;20168;-96
2022/06/10 09:48:22;;;;;;;2.97;1.80;;;24.50;61.30;;;;;;5145005;27;20185;-96
2022/06/10 09:51:15;;;;;;;3.07;1.70;;;24.50;61.20;;;;;;5144752;27;20606;-95
2022/06/10 09:53:53;;;;;;;3.23;1.80;;;24.40;61.40;;;;;;5144182;27;20153;-95
2022/06/10 09:56:37;;;;;;;4.20;1.90;;;24.40;61.70;;;;;;5143993;27;20232;-96
2022/06/10 09:59:52;;;;;;;2.87;1.80;;;24.40;62.10;;;;;;5145367;27;20154;-95
2022/06/10 10:02:57;;;;;;;2.77;1.83;;;24.40;62.30;;;;;;5144118;27;20200;-95
2022/06/10 10:05:23;;;;;;;5.03;1.60;;;24.30;62.60;;;;;;5078072;27;20187;-95
2022/06/10 10:10:58;;;;;;;4.63;1.93;;;24.30;63.20;;;;;;5161728;27;20176;-94
2022/06/10 10:13:48;;;;;;;6.40;1.90;;;24.30;63.60;;;;;;5143806;27;20146;-94
2022/06/10 10:16:49;;;;;;;4.10;1.60;;;24.20;63.80;;;;;;5143573;27;20265;-94
2022/06/10 10:19:34;;;;;;;4.33;1.80;;;24.30;64.10;;;;;;5143445;27;20174;-94
2022/06/10 10:22:35;;;;;;;3.53;1.70;;;24.30;64.10;;;;;;5144516;27;20165;-95
2022/06/10 10:25:01;;;;;;;2.80;1.70;;;24.30;64.10;;;;;;5145279;27;20149;-94
2022/06/10 10:27:33;;;;;;;5.53;2.00;;;24.30;64.10;;;;;;5144831;27;20158;-94
2022/06/10 10:30:13;;;;;;;4.73;1.80;;;24.30;64.20;;;;;;5144754;27;20176;-95
2022/06/10 10:32:42;;;;;;;4.70;1.90;;;24.30;64.30;;;;;;5143859;27;20193;-94
2022/06/10 10:35:30;;;;;;;6.23;2.20;;;24.30;64.40;;;;;;5143489;27;20161;-95
2022/06/10 10:37:59;;;;;;;8.53;2.20;;;24.30;64.50;;;;;;5143211;27;20197;-95
2022/06/10 10:40:46;;;;;;;4.67;1.77;;;24.30;64.60;;;;;;5143277;27;20473;-94
2022/06/10 10:43:52;;;;;;;7.30;1.80;;;24.30;64.80;;;;;;5143719;27;20169;-94
2022/06/10 10:46:29;;;;;;;6.27;1.83;;;24.30;65.00;;;;;;5142638;27;20245;-95
2022/06/10 10:48:57;;;;;;;5.57;1.80;;;24.30;65.20;;;;;;5143266;27;20158;-95
2022/06/10 10:54:48;;;;;;;4.90;1.90;;;24.20;65.70;;;;;;5160219;27;20203;-94
2022/06/10 10:57:21;;;;;;;5.80;1.83;;;24.20;65.90;;;;;;5142175;27;20230;-94
2022/06/10 11:00:12;;;;;;;5.20;1.80;;;24.20;66.00;;;;;;5142484;27;20229;-94
2022/06/10 11:03:26;;;;;;;5.30;2.10;;;24.20;66.20;;;;;;5142349;27;20174;-94
2022/06/10 11:05:53;;;;;;;6.60;2.10;;;24.20;66.20;;;;;;5142750;27;20161;-94
2022/06/10 11:08:35;;;;;;;5.03;1.77;;;24.20;66.90;;;;;;5143744;27;20168;-95
2022/06/10 11:11:34;;;;;;;7.57;2.10;;;24.30;66.20;;;;;;5143314;27;20165;-95
2022/06/10 11:14:19;;;;;;;3.80;1.90;;;24.30;66.10;;;;;;5116984;27;20178;-95
2022/06/10 11:17:23;;;;;;;5.70;1.90;;;24.30;66.00;;;;;;5143028;27;20213;-94
2022/06/10 11:24:05;;;;;;;5.03;1.80;;;24.40;66.30;;;;;;5161730;27;20153;-94
2022/06/10 11:26:31;;;;;;;3.70;1.60;;;24.40;66.30;;;;;;5100401;27;20165;-96
2022/06/10 11:29:07;;;;;;;3.77;1.80;;;24.40;66.30;;;;;;5144078;27;20183;-96
2022/06/10 11:45:21;;;;;;;3.97;1.80;;;24.40;66.70;;;;;;5160363;27;20168;-95
2022/06/10 11:47:54;;;;;;;3.90;1.93;;;24.40;66.90;;;;;;5141175;27;20161;-94
2022/06/10 11:50:26;;;;;;;3.60;1.60;;;24.40;66.70;;;;;;5142525;27;20320;-95
2022/06/10 11:53:45;;;;;;;4.30;1.50;;;24.40;66.90;;;;;;5142485;27;20167;-96
2022/06/10 12:00:06;;;;;;;3.17;1.90;;;24.40;67.10;;;;;;5160116;27;20145;-95
2022/06/10 12:02:47;;;;;;;2.97;1.50;;;24.50;67.30;;;;;;5143217;27;20161;-94
2022/06/10 12:05:15;;;;;;;3.10;1.60;;;24.50;67.30;;;;;;5143105;27;20165;-94
2022/06/10 12:08:05;;;;;;;4.23;2.00;;;24.50;67.40;;;;;;5141856;27;20181;-94
2022/06/10 12:10:54;;;;;;;3.00;1.60;;;24.50;67.20;;;;;;5141964;27;20200;-94
2022/06/10 12:13:22;;;;;;;3.10;1.67;;;24.50;67.20;;;;;;5139882;27;20174;-94
2022/06/10 12:16:26;;;;;;;2.97;1.60;;;24.50;67.00;;;;;;5140873;27;20161;-95
2022/06/10 12:18:53;;;;;;;3.27;1.47;;;24.60;67.30;;;;;;5140483;27;20193;-95
2022/06/10 12:21:24;;;;;;;3.77;1.87;;;24.60;67.20;;;;;;5140956;28;20150;-94
2022/06/10 12:23:51;;;;;;;2.50;1.20;;;24.60;67.10;;;;;;5141474;27;20237;-94
2022/06/10 12:26:17;;;;;;;3.73;1.70;;;24.60;67.00;;;;;;5141667;27;20157;-94
2022/06/10 12:28:53;;;;;;;3.67;1.50;;;24.60;67.10;;;;;;5141719;27;20185;-96
2022/06/10 12:32:07;;;;;;;3.77;1.60;;;24.60;67.10;;;;;;5142452;27;20173;-95
2022/06/10 12:37:57;;;;;;;3.97;1.77;;;24.60;67.80;;;;;;5101825;27;20264;-95
2022/06/10 12:41:10;;;;;;;4.57;1.70;;;24.70;67.60;;;;;;5142156;27;20162;-95
2022/06/10 12:50:56;;;;;;;4.00;1.80;;;24.70;67.60;;;;;;5077277;28;20222;-95
2022/06/10 12:53:57;;;;;;;4.60;1.80;;;24.70;67.60;;;;;;5060139;28;20148;-94
2022/06/10 12:56:31;;;;;;;3.37;1.70;;;24.70;67.70;;;;;;5060916;28;20285;-95
2022/06/10 12:59:27;;;;;;;3.87;1.50;;;24.70;67.80;;;;;;5141875;27;20165;-95
2022/06/10 13:01:53;;;;;;;3.10;1.60;;;24.70;67.90;;;;;;5141819;27;20138;-95
2022/06/10 13:04:24;;;;;;;2.73;1.40;;;24.70;67.90;;;;;;5140757;27;20170;-96
2022/06/10 13:07:02;;;;;;;1.90;1.40;;;24.70;68.00;;;;;;5141645;27;20161;-95
2022/06/10 13:10:22;;;;;;;3.73;1.60;;;24.70;68.00;;;;;;5141092;28;20149;-95
2022/06/10 13:12:48;;;;;;;3.97;1.67;;;24.80;68.60;;;;;;5097444;28;20178;-95
2022/06/10 13:15:26;;;;;;;4.03;1.60;;;24.80;67.90;;;;;;5141636;28;20157;-94
2022/06/10 13:18:03;;;;;;;2.90;1.50;;;24.80;67.90;;;;;;5139532;27;20207;-94
2022/06/10 13:20:37;;;;;;;4.80;1.43;;;24.80;67.90;;;;;;5144525;27;20156;-94
2022/06/10 13:23:08;;;;;;;3.60;1.30;;;24.80;67.90;;;;;;5145148;27;20150;-95
2022/06/10 13:25:34;;;;;;;1.83;1.40;;;24.80;67.80;;;;;;5144116;27;20178;-94
2022/06/10 13:28:00;;;;;;;3.27;1.50;;;24.80;68.00;;;;;;5146031;27;20185;-95
2022/06/10 13:30:30;;;;;;;3.10;1.47;;;24.80;68.10;;;;;;5145362;27;20166;-95
2022/06/10 13:33:02;;;;;;;2.90;1.53;;;24.80;68.30;;;;;;5144703;27;20165;-95
2022/06/10 13:35:33;;;;;;;4.63;1.50;;;24.80;68.50;;;;;;5145047;27;20184;-94
2022/06/10 13:38:13;;;;;;;2.97;1.43;;;24.80;69.00;;;;;;5145332;27;20213;-94
2022/06/10 13:40:45;;;;;;;3.23;1.30;;;24.80;68.50;;;;;;5145270;27;20352;-95
2022/06/10 13:46:33;;;;;;;3.23;1.30;;;24.80;68.50;;;;;;5156801;27;20187;-94
2022/06/10 13:53:13;;;;;;;4.20;1.50;;;24.90;68.60;;;;;;5161606;27;20159;-95
2022/06/10 13:55:45;;;;;;;2.50;1.43;;;24.90;68.60;;;;;;5042191;28;20203;-95
2022/06/10 13:58:15;;;;;;;3.03;1.23;;;24.90;68.60;;;;;;5128937;27;20252;-95
2022/06/10 14:01:19;;;;;;;2.17;1.40;;;24.90;68.50;;;;;;5145116;27;20230;-95
2022/06/10 14:07:23;;;;;;;2.97;1.40;;;24.90;68.90;;;;;;5163035;27;20184;-94
2022/06/10 14:09:49;;;;;;;2.97;1.40;;;24.90;68.90;;;;;;5144449;27;20185;-96
2022/06/10 14:12:27;;;;;;;3.47;1.50;;;24.90;68.80;;;;;;5143704;27;20200;-95
2022/06/10 14:15:15;;;;;;;3.27;1.83;;;24.90;68.90;;;;;;5144941;27;20193;-94
2022/06/10 14:17:51;;;;;;;3.87;1.53;;;24.90;69.10;;;;;;5144188;27;20190;-95
2022/06/10 14:20:21;;;;;;;3.67;1.50;;;24.90;69.20;;;;;;5140971;27;20149;-95
2022/06/10 14:22:47;;;;;;;2.23;1.50;;;24.90;69.20;;;;;;5144166;27;20186;-94
2022/06/10 14:25:13;;;;;;;2.90;1.23;;;25.00;69.30;;;;;;5144505;27;20158;-94
2022/06/10 14:27:49;;;;;;;2.93;1.33;;;25.00;69.40;;;;;;5143111;27;20245;-94
2022/06/10 14:30:20;;;;;;;3.77;1.20;;;25.00;69.40;;;;;;5141585;27;20202;-94
2022/06/10 14:32:58;;;;;;;1.73;1.20;;;24.90;69.50;;;;;;5143093;27;20156;-94
2022/06/10 14:35:52;;;;;;;4.27;1.40;;;25.00;69.70;;;;;;5140330;27;20244;-96
2022/06/10 14:38:22;;;;;;;2.97;1.40;;;25.00;70.00;;;;;;5142700;27;20220;-94
2022/06/10 14:40:58;;;;;;;3.50;1.40;;;25.00;70.00;;;;;;5142707;27;20168;-95
2022/06/10 14:44:15;;;;;;;3.20;1.53;;;25.00;70.00;;;;;;5141008;27;20181;-95
2022/06/10 14:46:41;;;;;;;3.80;1.27;;;25.00;70.20;;;;;;5058467;28;20259;-94
2022/06/10 14:49:27;;;;;;;3.43;1.37;;;25.00;70.20;;;;;;5130611;27;20201;-94
2022/06/10 14:52:15;;;;;;;1.80;1.30;;;25.00;70.40;;;;;;5139297;27;20216;-94
2022/06/10 14:54:41;;;;;;;2.80;1.30;;;25.00;70.50;;;;;;5136404;27;20162;-94
2022/06/10 14:57:17;;;;;;;3.50;1.40;;;25.00;70.60;;;;;;5141444;27;20205;-93
2022/06/10 14:59:43;;;;;;;2.73;1.53;;;25.10;70.70;;;;;;5137664;27;20161;-94
2022/06/10 15:02:10;;;;;;;2.60;1.60;;;25.00;70.50;;;;;;5141998;27;20164;-95
2022/06/10 15:04:35;;;;;;;3.00;1.63;;;25.10;70.60;;;;;;5143554;27;20165;-95
2022/06/10 15:07:02;;;;;;;2.17;1.10;;;25.10;70.60;;;;;;5143508;27;20233;-93
2022/06/10 15:09:45;;;;;;;3.40;1.30;;;25.10;70.70;;;;;;5143923;27;20162;-94
2022/06/10 15:12:21;;;;;;;3.67;1.53;;;25.10;70.70;;;;;;5141907;27;20185;-94
2022/06/10 15:14:47;;;;;;;2.87;1.50;;;25.00;70.60;;;;;;5142589;27;20202;-95
2022/06/10 15:17:14;;;;;;;3.43;1.50;;;25.10;70.90;;;;;;5141655;27;20264;-94
2022/06/10 15:19:41;;;;;;;2.40;1.30;;;25.10;70.70;;;;;;5142401;27;20174;-94
2022/06/10 15:22:15;;;;;;;2.30;1.23;;;25.10;70.70;;;;;;5141895;27;20216;-95
2022/06/10 15:24:40;;;;;;;2.63;1.37;;;25.10;70.90;;;;;;5142987;27;20213;-94
2022/06/10 15:27:09;;;;;;;4.10;1.33;;;25.10;70.80;;;;;;5142130;27;20190;-95
2022/06/10 15:29:34;;;;;;;3.20;1.20;;;25.10;70.90;;;;;;5140862;27;20169;-94
2022/06/10 15:32:00;;;;;;;2.03;1.20;;;25.10;70.90;;;;;;5141601;27;20237;-94
2022/06/10 15:34:26;;;;;;;2.87;1.47;;;25.10;70.80;;;;;;5139250;27;20162;-94
2022/06/10 15:42:42;;;;;;;1.93;1.40;;;25.10;70.90;;;;;;5160536;27;20210;-94
2022/06/10 15:45:12;;;;;;;2.50;1.30;;;25.10;70.90;;;;;;5142966;27;20162;-95
2022/06/10 15:47:38;;;;;;;2.57;1.30;;;25.10;70.90;;;;;;5143017;27;20158;-94
2022/06/10 15:50:04;;;;;;;4.27;1.47;;;25.10;71.00;;;;;;5143182;27;20164;-95
2022/06/10 15:52:38;;;;;;;2.87;1.20;;;25.10;71.10;;;;;;5143043;27;20181;-95
2022/06/10 15:58:15;;;;;;;2.40;1.27;;;25.10;71.10;;;;;;5160706;27;20254;-94
2022/06/10 16:00:41;;;;;;;1.77;1.27;;;25.10;71.00;;;;;;5143062;27;20161;-96
2022/06/10 16:03:11;;;;;;;1.60;1.40;;;25.10;71.00;;;;;;5142757;27;20207;-95
2022/06/10 16:05:40;;;;;;;2.30;1.20;;;25.10;71.00;;;;;;5142528;27;20177;-95
2022/06/10 16:08:06;;;;;;;1.80;1.10;;;25.10;71.10;;;;;;5142104;27;20245;-95
2022/06/10 16:10:32;;;;;;;1.33;1.20;;;25.10;71.10;;;;;;5140131;27;20173;-95
2022/06/10 16:13:00;;;;;;;1.50;1.40;;;25.10;71.10;;;;;;5139211;27;20189;-95
2022/06/10 16:15:38;;;;;;;2.10;1.23;;;25.10;71.20;;;;;;5145536;22;20230;-7
2022/06/10 16:18:20;;;;;;;1.87;1.20;;;25.10;71.30;;;;;;5067950;28;20299;-5
2022/06/10 16:20:48;;;;;;;1.83;1.30;;;25.10;71.30;;;;;;5086686;28;20182;-6
2022/06/10 16:23:17;;;;;;;2.60;1.23;;;25.10;71.30;;;;;;5087355;28;20227;-5
2022/06/10 16:25:48;;;;;;;1.73;1.30;;;25.10;71.40;;;;;;5085735;28;20158;-6
2022/06/10 16:28:31;;;;;;;2.60;1.27;;;25.10;71.40;;;;;;5086187;28;20167;-7
2022/06/10 16:30:58;;;;;;;2.63;1.30;;;25.10;71.60;;;;;;5086894;28;20206;-6
2022/06/10 16:33:26;;;;;;;2.10;1.13;;;25.10;71.70;;;;;;5087148;28;20258;-6
2022/06/10 16:35:52;;;;;;;1.73;1.20;;;25.00;71.70;;;;;;5086022;28;20355;-6
2022/06/10 16:38:27;;;;;;;1.60;1.40;;;25.00;71.80;;;;;;5068565;28;20286;-5
2022/06/10 16:40:54;;;;;;;2.37;1.30;;;25.00;72.00;;;;;;5086715;28;20631;-6
2022/06/10 16:43:22;;;;;;;1.47;1.13;;;25.00;72.10;;;;;;5069759;28;20179;-6
2022/06/10 16:45:49;;;;;;;2.77;1.40;;;25.00;72.20;;;;;;5087134;28;20173;-6
2022/06/10 16:48:20;;;;;;;3.27;1.53;;;25.00;72.30;;;;;;5089014;28;20398;-7
2022/06/10 16:50:48;;;;;;;2.20;1.20;;;25.00;72.50;;;;;;5087645;28;20177;-6
2022/06/10 16:53:14;;;;;;;1.93;1.40;;;25.00;72.50;;;;;;5087668;28;20166;-6
2022/06/10 16:55:42;;;;;;;3.00;1.30;;;24.90;72.60;;;;;;5068552;28;20166;-6
2022/06/10 16:58:24;;;;;;;1.70;1.10;;;24.90;72.70;;;;;;5087587;28;20304;-5